createdAt,value
2019-04-05T00:03:18.835Z,1.50
2019-04-05T00:08:11.886Z,1.50
2019-04-05T00:13:04.957Z,1.50
2019-04-05T00:17:57.041Z,1.50
2019-04-05T00:22:49.685Z,1.50
2019-04-05T00:27:42.585Z,1.50
2019-04-05T00:32:35.169Z,1.50
2019-04-05T00:37:27.977Z,1.50
2019-04-05T00:42:20.530Z,1.50
2019-04-05T00:47:13.041Z,1.50
2019-04-05T00:52:05.725Z,1.50
2019-04-05T00:56:58.378Z,1.50
2019-04-05T01:01:51.226Z,1.60
2019-04-05T01:06:43.653Z,1.50
2019-04-05T01:11:36.437Z,1.30
2019-04-05T01:16:29.270Z,1.20
2019-04-05T01:21:25.070Z,1.20
2019-04-05T01:26:19.365Z,1.30
2019-04-05T01:31:11.773Z,1.30
2019-04-05T01:36:04.157Z,1.30
2019-04-05T01:40:58.047Z,1.30
2019-04-05T01:45:53.824Z,1.30
2019-04-05T01:50:44.681Z,1.20
2019-04-05T01:55:37.085Z,1.30
2019-04-05T02:00:29.415Z,1.30
2019-04-05T02:05:22.075Z,1.20
2019-04-05T02:10:15.079Z,1.20
2019-04-05T02:15:08.744Z,1.20
2019-04-05T02:20:01.441Z,1.20
2019-04-05T02:24:54.333Z,1.40
2019-04-05T02:29:47.022Z,1.50
2019-04-05T02:34:39.768Z,1.60
2019-04-05T02:39:32.227Z,1.60
2019-04-05T02:44:26.562Z,1.50
2019-04-05T02:49:20.638Z,1.30
2019-04-05T02:54:14.394Z,1.20
2019-04-05T02:59:07.909Z,1.20
2019-04-05T03:04:00.897Z,1.20
2019-04-05T03:08:54.309Z,1.20
2019-04-05T03:13:49.522Z,1.30
2019-04-05T03:18:44.763Z,1.30
2019-04-05T03:23:40.264Z,1.10
2019-04-05T03:28:36.202Z,1.10
2019-04-05T03:33:29.127Z,1.30
2019-04-05T03:38:21.740Z,1.50
2019-04-05T03:43:14.682Z,1.50
2019-04-05T03:48:08.522Z,1.60
2019-04-05T03:53:01.091Z,1.50
2019-04-05T03:57:53.584Z,1.40
2019-04-05T04:02:46.431Z,1.30
2019-04-05T04:07:39.426Z,1.30
2019-04-05T04:12:31.629Z,1.30
2019-04-05T04:17:24.768Z,1.40
2019-04-05T04:22:25.753Z,1.40
2019-04-05T04:27:18.702Z,1.60
2019-04-05T04:32:12.046Z,1.60
2019-04-05T04:37:05.155Z,1.70
2019-04-05T04:41:58.540Z,1.70
2019-04-05T04:46:51.392Z,1.60
2019-04-05T04:51:44.108Z,1.50
2019-04-05T04:56:37.553Z,1.50
2019-04-05T05:01:30.120Z,1.60
2019-04-05T05:06:22.797Z,1.60
2019-04-05T05:11:15.549Z,1.50
2019-04-05T05:16:08.022Z,1.60
2019-04-05T05:21:01.173Z,1.60
2019-04-05T05:25:53.653Z,1.60
2019-04-05T05:30:46.080Z,1.70
2019-04-05T05:35:38.673Z,1.70
2019-04-05T05:40:35.162Z,1.80
2019-04-05T05:45:25.892Z,1.90
2019-04-05T05:50:18.430Z,1.90
2019-04-05T05:55:13.150Z,2.00
2019-04-05T06:00:09.774Z,2.00
2019-04-05T06:05:02.054Z,2.10
2019-04-05T06:09:54.679Z,2.20
2019-04-05T06:14:47.712Z,2.30
2019-04-05T06:19:40.077Z,2.20
2019-04-05T06:24:32.740Z,2.30
2019-04-05T06:29:25.643Z,2.40
2019-04-05T06:34:17.789Z,2.60
2019-04-05T06:39:10.080Z,2.70
2019-04-05T06:44:02.911Z,2.70
2019-04-05T06:48:55.726Z,2.80
2019-04-05T06:53:48.393Z,3.00
2019-04-05T06:58:40.768Z,3.00
2019-04-05T07:03:33.483Z,3.10
2019-04-05T07:08:25.811Z,3.20
2019-04-05T07:13:18.303Z,3.40
2019-04-05T07:18:10.711Z,3.40
2019-04-05T07:23:03.235Z,3.50
2019-04-05T07:27:55.627Z,3.60
2019-04-05T07:32:47.871Z,3.70
2019-04-05T07:37:40.404Z,3.70
2019-04-05T07:42:32.721Z,3.90
2019-04-05T07:47:25.430Z,4.20
2019-04-05T07:52:18.148Z,4.30
2019-04-05T07:57:10.866Z,4.50
2019-04-05T08:02:03.261Z,4.80
2019-04-05T08:06:58.484Z,5.00
2019-04-05T08:11:50.783Z,5.30
2019-04-05T08:16:43.683Z,5.30
2019-04-05T08:21:36.376Z,5.30
2019-04-05T08:26:29.049Z,5.50
2019-04-05T08:31:21.596Z,5.70
2019-04-05T08:36:14.195Z,5.90
2019-04-05T08:41:06.584Z,6.10
2019-04-05T08:45:58.736Z,6.30
2019-04-05T08:50:51.205Z,6.60
2019-04-05T08:55:43.712Z,6.60
2019-04-05T09:00:36.438Z,6.70
2019-04-05T09:05:29.028Z,7.30
2019-04-05T09:10:21.727Z,7.70
2019-04-05T09:15:14.299Z,8.00
2019-04-05T09:20:07.243Z,8.50
2019-04-05T09:24:59.675Z,9.90
2019-04-05T09:29:52.393Z,11.20
2019-04-05T09:34:44.700Z,12.70
2019-04-05T09:39:37.043Z,13.20
2019-04-05T09:44:29.455Z,13.50
2019-04-05T09:49:21.871Z,14.50
2019-04-05T09:54:14.432Z,16.70
2019-04-05T09:59:08.916Z,18.20
2019-04-05T10:04:00.952Z,19.00
2019-04-05T10:08:53.331Z,19.20
2019-04-05T10:13:45.539Z,19.90
2019-04-05T10:18:38.191Z,20.60
2019-04-05T10:23:30.808Z,20.60
2019-04-05T10:28:23.092Z,20.80
2019-04-05T10:33:15.655Z,21.20
2019-04-05T10:38:08.144Z,20.60
2019-04-05T10:43:00.953Z,19.20
2019-04-05T10:47:53.580Z,17.50
2019-04-05T10:52:46.269Z,15.90
2019-04-05T10:57:38.748Z,15.00
2019-04-05T11:02:31.489Z,14.20
2019-04-05T11:07:24.068Z,13.40
2019-04-05T11:12:16.691Z,12.60
2019-04-05T11:17:09.227Z,12.20
2019-04-05T11:22:01.464Z,12.00
2019-04-05T11:26:54.121Z,11.90
2019-04-05T11:31:56.310Z,11.80
2019-04-05T11:36:40.986Z,11.80
2019-04-05T11:41:34.231Z,12.10
2019-04-05T11:46:27.780Z,12.70
2019-04-05T11:51:20.096Z,13.60
2019-04-05T11:56:14.808Z,15.10
2019-04-05T12:01:08.085Z,15.20
2019-04-05T12:06:00.694Z,14.50
2019-04-05T12:10:53.399Z,13.80
2019-04-05T12:15:45.892Z,13.10
2019-04-05T12:20:49.464Z,12.60
2019-04-05T12:25:33.762Z,12.40
2019-04-05T12:30:27.211Z,12.40
2019-04-05T12:35:21.614Z,12.60
2019-04-05T12:40:14.844Z,12.60
2019-04-05T12:45:07.976Z,12.70
2019-04-05T12:50:00.564Z,12.90
2019-04-05T12:54:54.939Z,14.00
2019-04-05T12:59:47.019Z,14.50
2019-04-05T13:04:39.436Z,13.90
2019-04-05T13:09:31.806Z,13.10
2019-04-05T13:14:26.090Z,12.30
2019-04-05T13:19:18.403Z,11.90
2019-04-05T13:24:11.107Z,11.60
2019-04-05T13:29:03.508Z,11.40
2019-04-05T13:33:56.312Z,11.20
2019-04-05T13:38:54.688Z,11.10
2019-04-05T13:43:43.505Z,11.10
2019-04-05T13:48:37.628Z,11.10
2019-04-05T13:53:30.054Z,11.10
2019-04-05T13:58:22.629Z,11.10
2019-04-05T14:03:15.214Z,11.20
2019-04-05T14:08:11.056Z,11.30
2019-04-05T14:13:02.069Z,11.40
2019-04-05T14:17:54.555Z,11.50
2019-04-05T14:22:48.634Z,11.50
2019-04-05T14:27:41.366Z,11.40
2019-04-05T14:32:34.224Z,11.30
2019-04-05T14:37:26.893Z,11.30
2019-04-05T14:42:19.706Z,11.20
2019-04-05T14:47:12.429Z,11.10
2019-04-05T14:52:04.913Z,10.90
2019-04-05T14:56:57.698Z,10.80
2019-04-05T15:01:51.597Z,10.70
2019-04-05T15:06:44.064Z,10.60
2019-04-05T15:11:36.635Z,10.50
2019-04-05T15:16:29.029Z,10.50
2019-04-05T15:21:21.351Z,10.50
2019-04-05T15:26:13.655Z,10.50
2019-04-05T15:31:06.432Z,10.50
2019-04-05T15:36:02.949Z,10.40
2019-04-05T15:40:53.263Z,10.40
2019-04-05T15:45:45.697Z,10.30
2019-04-05T15:50:38.429Z,10.30
2019-04-05T15:55:33.248Z,10.30
2019-04-05T16:00:44.625Z,10.20
2019-04-05T16:05:37.147Z,10.20
2019-04-05T16:10:29.687Z,10.10
2019-04-05T16:15:22.475Z,10.10
2019-04-05T16:20:16.886Z,10.10
2019-04-05T16:25:10.050Z,10.00
2019-04-05T16:30:02.484Z,10.00
2019-04-05T16:34:54.589Z,9.90
2019-04-05T16:39:47.341Z,9.70
2019-04-05T16:44:39.899Z,9.70
2019-04-05T16:49:32.305Z,9.80
2019-04-05T16:54:24.994Z,9.70
2019-04-05T16:59:17.579Z,9.60
2019-04-05T17:04:10.444Z,9.60
2019-04-05T17:09:03.094Z,9.60
2019-04-05T17:13:59.355Z,9.50
2019-04-05T17:18:49.678Z,9.40
2019-04-05T17:23:42.291Z,9.30
2019-04-05T17:28:34.990Z,9.30
2019-04-05T17:33:27.548Z,9.30
2019-04-05T17:38:20.499Z,9.20
2019-04-05T17:43:13.037Z,9.10
2019-04-05T17:48:05.794Z,9.10
2019-04-05T17:53:11.377Z,9.10
2019-04-05T17:57:53.118Z,9.00
2019-04-05T18:02:45.733Z,9.00
2019-04-05T18:07:38.185Z,9.00
2019-04-05T18:12:30.671Z,9.00
2019-04-05T18:17:22.930Z,8.90
2019-04-05T18:22:15.405Z,8.80
2019-04-05T18:27:08.034Z,8.70
2019-04-05T18:32:00.773Z,8.60
2019-04-05T18:36:53.557Z,8.50
2019-04-05T18:41:46.107Z,8.40
2019-04-05T18:46:38.678Z,8.30
2019-04-05T18:51:31.138Z,8.30
2019-04-05T18:56:23.505Z,8.20
2019-04-05T19:01:16.213Z,8.20
2019-04-05T19:06:08.970Z,8.20
2019-04-05T19:11:01.607Z,8.20
2019-04-05T19:15:54.173Z,8.20
2019-04-05T19:20:46.367Z,8.10
2019-04-05T19:25:40.233Z,8.10
2019-04-05T19:50:08.941Z,8.10
2019-04-05T19:55:01.582Z,8.00
2019-04-05T19:59:54.210Z,8.00
2019-04-05T20:04:46.694Z,8.00
2019-04-05T20:09:39.234Z,7.90
2019-04-05T20:14:31.509Z,7.90
2019-04-05T20:19:24.120Z,7.90
2019-04-05T20:24:16.805Z,7.90
2019-04-05T20:29:09.426Z,7.90
2019-04-05T20:34:04.164Z,8.00
2019-04-05T20:38:58.995Z,8.00
2019-04-05T20:43:51.765Z,7.90
2019-04-05T20:48:44.381Z,7.90
2019-04-05T20:53:36.657Z,7.90
2019-04-05T20:58:29.098Z,7.90
2019-04-05T21:03:21.753Z,7.80
2019-04-05T21:08:15.973Z,7.80
2019-04-05T21:13:08.650Z,7.80
2019-04-05T21:18:01.005Z,7.80
2019-04-05T21:22:53.482Z,7.80
2019-04-05T21:27:46.676Z,7.80
2019-04-05T21:32:39.298Z,7.80
2019-04-05T21:37:31.694Z,7.70
2019-04-05T21:42:24.586Z,7.70
2019-04-05T21:47:17.186Z,7.70
2019-04-05T21:52:09.990Z,7.60
2019-04-05T21:57:02.390Z,7.70
2019-04-05T22:01:55.461Z,7.70
2019-04-05T22:06:48.333Z,7.70
2019-04-05T22:11:40.712Z,7.70
2019-04-05T22:16:33.213Z,7.70
2019-04-05T22:21:25.984Z,7.70
2019-04-05T22:26:18.631Z,7.70
2019-04-05T22:31:11.612Z,7.70
2019-04-05T22:36:04.062Z,7.70
2019-04-05T22:40:56.406Z,7.60
2019-04-05T22:45:48.789Z,7.50
2019-04-05T22:50:41.222Z,7.30
2019-04-05T22:55:33.945Z,7.20
2019-04-05T23:00:26.268Z,7.10
2019-04-05T23:05:18.906Z,7.00
2019-04-05T23:10:12.212Z,6.90
2019-04-05T23:15:08.066Z,6.70
2019-04-05T23:20:00.801Z,6.60
2019-04-05T23:24:53.325Z,6.40
2019-04-05T23:29:45.956Z,6.30
2019-04-05T23:34:38.631Z,6.20
2019-04-05T23:39:31.068Z,6.00
2019-04-05T23:44:23.545Z,5.80
2019-04-05T23:49:15.884Z,5.70
2019-04-05T23:54:08.723Z,5.60
2019-04-05T23:59:01.173Z,5.50
